createdAt,value
2018-07-13T00:00:35.122Z,8.13
2018-07-13T00:03:03.142Z,8.40
2018-07-13T00:05:31.173Z,7.70
2018-07-13T00:07:59.202Z,8.90
2018-07-13T00:10:27.229Z,8.17
2018-07-13T00:12:55.248Z,8.33
2018-07-13T00:15:23.282Z,7.28
2018-07-13T00:17:51.305Z,7.70
2018-07-13T00:20:19.333Z,7.47
2018-07-13T00:22:47.360Z,7.90
2018-07-13T00:25:15.392Z,7.08
2018-07-13T00:27:43.426Z,8.00
2018-07-13T00:30:11.450Z,8.00
2018-07-13T00:32:39.737Z,7.60
2018-07-13T00:35:07.760Z,7.53
2018-07-13T00:37:35.792Z,7.00
2018-07-13T00:40:04.460Z,8.50
2018-07-13T00:42:32.515Z,7.77
2018-07-13T00:45:00.548Z,6.57
2018-07-13T00:47:28.976Z,7.87
2018-07-13T00:49:57.009Z,7.90
2018-07-13T00:52:25.059Z,8.73
2018-07-13T00:54:53.089Z,7.50
2018-07-13T00:57:21.118Z,8.73
2018-07-13T00:59:49.146Z,7.13
2018-07-13T01:02:17.165Z,8.77
2018-07-13T01:04:45.202Z,9.23
2018-07-13T01:07:13.252Z,7.60
2018-07-13T01:09:41.288Z,8.93
2018-07-13T01:12:09.327Z,10.08
2018-07-13T01:14:37.349Z,9.43
2018-07-13T01:17:05.392Z,9.03
2018-07-13T01:19:33.459Z,8.53
2018-07-13T01:22:01.594Z,9.80
2018-07-13T01:24:29.620Z,8.03
2018-07-13T01:26:57.648Z,9.50
2018-07-13T01:29:25.676Z,9.27
2018-07-13T01:31:53.762Z,8.27
2018-07-13T01:34:21.780Z,7.62
2018-07-13T01:36:50.074Z,9.43
2018-07-13T01:39:18.073Z,8.77
2018-07-13T01:41:46.101Z,10.57
2018-07-13T01:44:14.153Z,10.37
2018-07-13T01:46:42.200Z,9.43
2018-07-13T01:49:10.236Z,12.37
2018-07-13T01:51:38.267Z,10.03
2018-07-13T01:54:06.337Z,11.07
2018-07-13T01:56:34.584Z,8.77
2018-07-13T01:59:03.084Z,9.27
2018-07-13T02:01:31.340Z,8.07
2018-07-13T02:03:59.612Z,9.67
2018-07-13T02:06:27.633Z,9.53
2018-07-13T02:08:56.361Z,9.23
2018-07-13T02:11:24.400Z,10.47
2018-07-13T02:13:52.459Z,10.77
2018-07-13T02:16:20.493Z,8.90
2018-07-13T02:18:48.644Z,9.03
2018-07-13T02:21:16.672Z,11.97
2018-07-13T02:23:44.755Z,9.73
2018-07-13T02:26:12.974Z,11.10
2018-07-13T02:28:41.021Z,11.57
2018-07-13T02:31:09.055Z,12.77
2018-07-13T02:33:37.081Z,9.47
2018-07-13T02:36:05.154Z,10.20
2018-07-13T02:38:33.197Z,11.23
2018-07-13T02:41:01.219Z,10.00
2018-07-13T02:43:29.254Z,10.17
2018-07-13T02:45:57.281Z,10.37
2018-07-13T02:48:25.428Z,10.30
2018-07-13T02:50:53.548Z,11.50
2018-07-13T02:53:21.586Z,13.73
2018-07-13T02:55:49.637Z,12.97
2018-07-13T02:58:17.689Z,11.90
2018-07-13T03:00:45.974Z,9.83
2018-07-13T03:03:14.045Z,12.20
2018-07-13T03:05:42.114Z,11.77
2018-07-13T03:08:10.370Z,10.32
2018-07-13T03:10:38.402Z,12.63
2018-07-13T03:13:06.449Z,10.80
2018-07-13T03:15:34.479Z,10.33
2018-07-13T03:18:02.513Z,10.90
2018-07-13T03:20:30.844Z,10.13
2018-07-13T03:22:58.908Z,12.73
2018-07-13T03:25:26.976Z,12.23
2018-07-13T03:27:55.049Z,13.40
2018-07-13T03:30:23.440Z,13.15
2018-07-13T03:32:51.518Z,10.93
2018-07-13T03:35:20.206Z,14.87
2018-07-13T03:37:48.242Z,14.20
2018-07-13T03:40:16.304Z,15.80
2018-07-13T03:42:44.597Z,13.80
2018-07-13T03:45:12.773Z,15.80
2018-07-13T03:47:40.850Z,15.37
2018-07-13T03:50:08.933Z,16.10
2018-07-13T03:52:36.969Z,16.87
2018-07-13T03:55:05.080Z,13.43
2018-07-13T03:57:33.104Z,16.10
2018-07-13T04:00:01.141Z,15.37
2018-07-13T04:02:29.492Z,16.90
2018-07-13T04:04:57.520Z,16.30
2018-07-13T04:07:25.738Z,18.80
2018-07-13T04:09:53.764Z,14.90
2018-07-13T04:12:21.958Z,16.75
2018-07-13T04:14:50.143Z,20.10
2018-07-13T04:17:18.165Z,15.23
2018-07-13T04:19:46.189Z,16.13
2018-07-13T04:22:14.238Z,18.03
2018-07-13T04:24:42.268Z,18.83
2018-07-13T04:27:10.351Z,19.40
2018-07-13T04:29:38.989Z,19.80
2018-07-13T04:32:07.019Z,18.27
2018-07-13T04:34:35.138Z,16.70
2018-07-13T04:37:03.175Z,15.20
2018-07-13T04:39:31.591Z,17.00
2018-07-13T04:41:59.625Z,17.40
2018-07-13T04:44:27.648Z,18.07
2018-07-13T04:46:55.893Z,18.27
2018-07-13T04:49:23.916Z,18.47
2018-07-13T04:51:51.971Z,18.00
2018-07-13T04:54:20.008Z,17.85
2018-07-13T04:56:48.117Z,18.23
2018-07-13T04:59:16.141Z,17.92
2018-07-13T05:01:44.434Z,14.73
2018-07-13T05:04:12.424Z,19.13
2018-07-13T05:06:40.448Z,17.87
2018-07-13T05:09:09.136Z,17.43
2018-07-13T05:11:37.348Z,15.63
2018-07-13T05:14:05.381Z,15.90
2018-07-13T05:16:33.402Z,15.20
2018-07-13T05:19:01.434Z,16.93
2018-07-13T05:21:29.620Z,17.67
2018-07-13T05:23:57.780Z,17.63
2018-07-13T05:26:25.857Z,15.30
2018-07-13T05:28:53.897Z,16.00
2018-07-13T05:31:22.167Z,16.60
2018-07-13T05:33:50.185Z,15.17
2018-07-13T05:36:18.213Z,14.90
2018-07-13T05:38:46.258Z,16.03
2018-07-13T05:41:14.460Z,17.23
2018-07-13T05:43:42.656Z,17.33
2018-07-13T05:46:10.689Z,17.07
2018-07-13T05:48:39.508Z,18.93
2018-07-13T05:51:07.533Z,17.23
2018-07-13T05:53:35.948Z,17.47
2018-07-13T05:56:04.836Z,16.53
2018-07-13T05:58:32.937Z,14.77
2018-07-13T06:01:01.297Z,17.93
2018-07-13T06:03:29.699Z,14.77
2018-07-13T06:05:57.736Z,17.23
2018-07-13T06:08:25.825Z,15.27
2018-07-13T06:10:53.885Z,16.23
2018-07-13T06:13:21.981Z,16.67
2018-07-13T06:15:50.022Z,13.83
2018-07-13T06:18:18.085Z,15.85
2018-07-13T06:20:46.127Z,15.40
2018-07-13T06:23:14.241Z,13.70
2018-07-13T06:25:42.522Z,12.70
2018-07-13T06:28:10.573Z,13.88
2018-07-13T06:30:38.800Z,13.90
2018-07-13T06:33:07.346Z,13.90
2018-07-13T06:35:35.541Z,13.00
2018-07-13T06:38:03.565Z,12.83
2018-07-13T06:40:31.610Z,11.37
2018-07-13T06:42:59.640Z,10.83
2018-07-13T06:45:27.680Z,12.87
2018-07-13T06:47:55.740Z,13.30
2018-07-13T06:50:23.834Z,12.80
2018-07-13T06:52:51.808Z,12.30
2018-07-13T06:55:19.838Z,13.03
2018-07-13T06:57:59.388Z,14.07
2018-07-13T07:01:00.461Z,12.13
2018-07-13T07:03:29.564Z,12.90
2018-07-13T07:06:13.460Z,14.10
2018-07-13T07:08:44.969Z,11.60
2018-07-13T07:11:13.017Z,12.78
2018-07-13T07:13:42.932Z,13.87
2018-07-13T07:16:11.068Z,13.47
2018-07-13T07:18:39.129Z,13.53
2018-07-13T07:21:07.649Z,13.27
2018-07-13T07:23:36.035Z,12.23
2018-07-13T07:26:05.433Z,11.43
2018-07-13T07:28:33.524Z,11.93
2018-07-13T07:31:02.229Z,11.23
2018-07-13T07:33:30.266Z,10.50
2018-07-13T07:35:58.313Z,11.23
2018-07-13T07:38:26.444Z,12.67
2018-07-13T07:40:54.429Z,12.10
2018-07-13T07:43:22.460Z,11.65
2018-07-13T07:45:50.544Z,10.97
2018-07-13T07:48:18.565Z,10.65
2018-07-13T07:50:46.597Z,10.87
2018-07-13T07:53:14.639Z,10.40
2018-07-13T07:55:42.690Z,11.03
2018-07-13T07:58:10.897Z,10.90
2018-07-13T08:00:38.936Z,11.10
2018-07-13T08:03:06.985Z,10.53
2018-07-13T08:05:35.202Z,10.63
2018-07-13T08:08:03.249Z,10.57
2018-07-13T08:10:31.288Z,10.43
2018-07-13T08:12:59.330Z,8.93
2018-07-13T08:15:27.375Z,9.27
2018-07-13T08:17:55.429Z,10.17
2018-07-13T08:20:28.904Z,9.40
2018-07-13T08:22:57.931Z,8.93
2018-07-13T08:25:27.027Z,8.57
2018-07-13T08:27:59.208Z,7.80
2018-07-13T08:30:33.097Z,7.57
2018-07-13T08:33:01.127Z,8.53
2018-07-13T08:35:29.153Z,8.00
2018-07-13T08:37:57.640Z,7.90
2018-07-13T08:40:25.708Z,8.03
2018-07-13T08:42:53.970Z,8.50
2018-07-13T08:45:21.992Z,8.97
2018-07-13T08:47:50.035Z,8.97
2018-07-13T08:50:19.101Z,9.07
2018-07-13T08:52:47.150Z,8.77
2018-07-13T08:55:16.221Z,7.83
2018-07-13T08:57:45.893Z,7.70
2018-07-13T09:00:13.933Z,8.50
2018-07-13T09:02:41.958Z,8.27
2018-07-13T09:05:10.110Z,8.37
2018-07-13T09:07:38.780Z,8.20
2018-07-13T09:10:09.876Z,7.47
2018-07-13T09:12:38.403Z,8.80
2018-07-13T09:15:07.209Z,8.40
2018-07-13T09:17:35.226Z,7.33
2018-07-13T09:20:03.257Z,7.73
2018-07-13T09:22:31.398Z,8.67
2018-07-13T09:24:59.444Z,8.60
2018-07-13T09:27:27.563Z,7.67
2018-07-13T09:29:55.596Z,6.70
2018-07-13T09:32:23.614Z,7.47
2018-07-13T09:34:51.661Z,7.10
2018-07-13T09:37:20.134Z,7.00
2018-07-13T09:39:48.165Z,6.73
2018-07-13T09:42:16.183Z,6.30
2018-07-13T09:44:44.477Z,6.53
2018-07-13T09:47:12.549Z,6.73
2018-07-13T09:49:40.560Z,6.00
2018-07-13T09:52:08.880Z,6.23
2018-07-13T09:54:36.908Z,6.77
2018-07-13T09:57:05.553Z,6.33
2018-07-13T09:59:33.702Z,5.83
2018-07-13T10:02:01.721Z,6.40
2018-07-13T10:04:29.751Z,5.97
2018-07-13T10:06:57.772Z,5.63
2018-07-13T10:09:25.814Z,6.63
2018-07-13T10:11:53.860Z,7.03
2018-07-13T10:14:21.889Z,6.67
2018-07-13T10:16:49.928Z,6.03
2018-07-13T10:19:17.981Z,6.43
2018-07-13T10:21:47.374Z,7.23
2018-07-13T10:24:17.788Z,6.93
2018-07-13T10:26:46.012Z,7.10
2018-07-13T10:29:18.355Z,6.10
2018-07-13T10:31:46.379Z,7.20
2018-07-13T10:34:15.152Z,5.83
2018-07-13T10:36:46.988Z,6.23
2018-07-13T10:39:15.022Z,6.72
2018-07-13T10:41:43.178Z,6.27
2018-07-13T10:44:11.222Z,6.22
2018-07-13T10:46:39.254Z,6.10
2018-07-13T10:49:07.416Z,6.40
2018-07-13T10:51:35.698Z,6.03
2018-07-13T10:54:04.599Z,7.00
2018-07-13T10:56:32.629Z,6.27
2018-07-13T10:59:01.048Z,6.80
2018-07-13T11:01:29.074Z,6.47
2018-07-13T11:03:57.124Z,6.50
2018-07-13T11:06:25.176Z,6.70
2018-07-13T11:08:53.218Z,6.17
2018-07-13T11:11:21.405Z,6.30
2018-07-13T11:13:50.101Z,6.37
2018-07-13T11:16:18.081Z,6.22
2018-07-13T11:18:46.105Z,6.13
2018-07-13T11:21:14.140Z,5.43
2018-07-13T11:23:42.259Z,6.33
2018-07-13T11:26:10.278Z,5.62
2018-07-13T11:28:39.309Z,5.20
2018-07-13T11:31:07.344Z,5.50
2018-07-13T11:33:35.573Z,4.70
2018-07-13T11:36:03.740Z,5.17
2018-07-13T11:38:32.025Z,5.83
2018-07-13T11:41:06.868Z,5.83
2018-07-13T11:43:34.909Z,5.50
2018-07-13T11:46:03.080Z,5.33
2018-07-13T11:48:31.405Z,5.17
2018-07-13T11:50:59.445Z,4.47
2018-07-13T11:53:27.480Z,4.90
2018-07-13T11:55:55.525Z,5.37
2018-07-13T11:58:23.565Z,4.53
2018-07-13T12:00:51.595Z,5.77
2018-07-13T12:03:19.620Z,5.37
2018-07-13T12:05:47.649Z,5.87
2018-07-13T12:08:15.711Z,4.90
2018-07-13T12:10:44.117Z,5.30
2018-07-13T12:13:12.133Z,5.80
2018-07-13T12:15:40.170Z,6.27
2018-07-13T12:18:08.233Z,5.70
2018-07-13T12:20:36.275Z,5.57
2018-07-13T12:23:04.973Z,5.30
2018-07-13T12:25:33.057Z,4.57
2018-07-13T12:28:01.085Z,4.40
2018-07-13T12:30:29.297Z,5.03
2018-07-13T12:32:57.333Z,5.20
2018-07-13T12:35:25.370Z,4.83
2018-07-13T12:37:53.468Z,4.63
2018-07-13T12:40:21.440Z,4.70
2018-07-13T12:42:49.473Z,4.33
2018-07-13T12:45:17.509Z,4.33
2018-07-13T12:47:45.545Z,4.20
2018-07-13T12:50:13.585Z,4.47
2018-07-13T12:52:41.667Z,4.90
2018-07-13T12:55:09.704Z,4.97
2018-07-13T12:57:37.740Z,4.00
2018-07-13T13:00:05.779Z,3.90
2018-07-13T13:02:33.820Z,4.33
2018-07-13T13:05:01.862Z,4.50
2018-07-13T13:07:30.137Z,6.90
2018-07-13T13:09:58.299Z,4.67
2018-07-13T13:12:26.339Z,4.60
2018-07-13T13:14:54.365Z,4.00
2018-07-13T13:17:22.393Z,4.17
2018-07-13T13:19:50.422Z,4.70
2018-07-13T13:22:18.451Z,4.40
2018-07-13T13:24:46.496Z,4.80
2018-07-13T13:27:14.533Z,4.25
2018-07-13T13:29:42.557Z,4.70
2018-07-13T13:32:10.589Z,4.17
2018-07-13T13:34:38.623Z,4.23
2018-07-13T13:37:06.657Z,3.77
2018-07-13T13:39:34.684Z,4.50
2018-07-13T13:42:02.716Z,3.80
2018-07-13T13:44:30.897Z,4.17
2018-07-13T13:46:58.912Z,6.90
2018-07-13T13:49:26.964Z,5.23
2018-07-13T13:51:54.992Z,4.77
2018-07-13T13:54:23.032Z,4.83
2018-07-13T13:56:51.089Z,4.20
2018-07-13T13:59:19.104Z,3.50
2018-07-13T14:01:47.149Z,4.00
2018-07-13T14:04:19.347Z,3.73
2018-07-13T14:06:47.553Z,4.00
2018-07-13T14:09:15.625Z,3.93
2018-07-13T14:11:43.584Z,3.50
2018-07-13T14:14:12.064Z,3.58
2018-07-13T14:16:40.432Z,4.23
2018-07-13T14:19:08.500Z,4.23
2018-07-13T14:21:36.519Z,3.87
2018-07-13T14:24:04.774Z,3.70
2018-07-13T14:26:33.330Z,4.10
2018-07-13T14:29:02.170Z,3.90
2018-07-13T14:31:31.003Z,4.10
2018-07-13T14:33:59.025Z,4.17
2018-07-13T14:36:27.148Z,4.20
2018-07-13T14:38:55.172Z,4.50
2018-07-13T14:41:23.202Z,4.27
2018-07-13T14:43:51.235Z,3.93
2018-07-13T14:46:19.248Z,4.00
2018-07-13T14:48:47.276Z,4.00
2018-07-13T14:51:15.574Z,4.23
2018-07-13T14:53:44.332Z,3.97
2018-07-13T14:56:12.817Z,3.83
2018-07-13T14:58:41.329Z,3.83
2018-07-13T15:01:10.630Z,3.95
2018-07-13T15:03:39.131Z,3.90
2018-07-13T15:06:07.256Z,3.90
2018-07-13T15:08:35.470Z,5.73
2018-07-13T15:11:03.490Z,4.10
2018-07-13T15:13:31.521Z,4.00
2018-07-13T15:15:59.534Z,4.00
2018-07-13T15:18:27.554Z,3.70
2018-07-13T15:20:55.576Z,3.50
2018-07-13T15:23:23.893Z,3.80
2018-07-13T15:26:04.092Z,3.70
2018-07-13T15:28:32.122Z,4.30
2018-07-13T15:31:01.316Z,4.10
2018-07-13T15:33:29.338Z,4.63
2018-07-13T15:35:57.356Z,4.20
2018-07-13T15:38:25.368Z,4.40
2018-07-13T15:40:53.399Z,3.93
2018-07-13T15:43:21.449Z,4.17
2018-07-13T15:45:49.747Z,3.57
2018-07-13T15:48:17.768Z,3.80
2018-07-13T15:50:45.884Z,4.53
2018-07-13T15:53:13.976Z,4.17
2018-07-13T15:55:47.333Z,4.10
2018-07-13T15:58:15.346Z,4.20
2018-07-13T16:00:43.364Z,4.10
2018-07-13T16:03:11.602Z,4.33
2018-07-13T16:05:39.933Z,4.17
2018-07-13T16:08:08.215Z,4.30
2018-07-13T16:10:36.789Z,5.50
2018-07-13T16:13:04.897Z,4.40
2018-07-13T16:15:33.429Z,4.80
2018-07-13T16:18:01.474Z,4.30
2018-07-13T16:20:29.488Z,4.27
2018-07-13T16:22:57.568Z,4.13
2018-07-13T16:25:25.867Z,4.50
2018-07-13T16:27:55.264Z,4.37
2018-07-13T16:30:24.540Z,4.47
2018-07-13T16:32:52.564Z,4.13
2018-07-13T16:35:20.680Z,4.20
2018-07-13T16:37:48.685Z,3.87
2018-07-13T16:40:16.828Z,3.90
2018-07-13T16:42:44.859Z,3.87
2018-07-13T16:45:13.016Z,3.70
2018-07-13T16:47:41.008Z,5.23
2018-07-13T16:50:09.017Z,5.10
2018-07-13T16:52:37.500Z,6.37
2018-07-13T16:55:05.677Z,5.27
2018-07-13T16:57:34.251Z,3.77
2018-07-13T17:00:02.276Z,4.50
2018-07-13T17:02:30.557Z,4.10
2018-07-13T17:04:58.766Z,4.57
2018-07-13T17:07:26.841Z,4.33
2018-07-13T17:09:54.901Z,4.03
2018-07-13T17:12:23.621Z,4.28
2018-07-13T17:14:51.663Z,4.17
2018-07-13T17:17:20.505Z,4.13
2018-07-13T17:19:48.645Z,4.13
2018-07-13T17:22:16.660Z,3.90
2018-07-13T17:24:44.716Z,4.23
2018-07-13T17:27:12.962Z,4.17
2018-07-13T17:29:40.976Z,4.40
2018-07-13T17:32:09.544Z,4.28
2018-07-13T17:34:37.566Z,4.10
2018-07-13T17:37:05.590Z,4.40
2018-07-13T17:39:33.932Z,4.70
2018-07-13T17:42:01.981Z,4.37
2018-07-13T17:44:30.981Z,4.77
2018-07-13T17:46:59.003Z,6.23
2018-07-13T17:49:45.729Z,4.03
2018-07-13T17:52:13.757Z,4.13
2018-07-13T17:54:43.234Z,4.20
2018-07-13T17:57:11.607Z,4.65
2018-07-13T17:59:39.645Z,4.50
2018-07-13T18:02:07.658Z,4.80
2018-07-13T18:04:35.820Z,4.43
2018-07-13T18:07:04.875Z,4.60
2018-07-13T18:09:36.116Z,4.60
2018-07-13T18:12:07.460Z,5.57
2018-07-13T18:14:35.800Z,5.10
2018-07-13T18:17:04.809Z,5.17
2018-07-13T18:19:32.844Z,4.67
2018-07-13T18:22:00.867Z,6.07
2018-07-13T18:24:28.894Z,6.37
2018-07-13T18:26:57.080Z,9.37
2018-07-13T18:29:25.764Z,5.17
2018-07-13T18:31:55.057Z,4.97
2018-07-13T18:34:23.071Z,4.70
2018-07-13T18:36:51.152Z,5.27
2018-07-13T18:39:19.886Z,5.20
2018-07-13T18:41:49.501Z,5.20
2018-07-13T18:44:17.567Z,5.30
2018-07-13T18:46:45.606Z,4.70
2018-07-13T18:49:13.662Z,4.97
2018-07-13T18:51:48.333Z,5.00
2018-07-13T18:54:16.622Z,4.90
2018-07-13T18:56:44.725Z,5.50
2018-07-13T18:59:13.080Z,5.47
2018-07-13T19:01:41.115Z,5.50
2018-07-13T19:04:09.144Z,5.13
2018-07-13T19:06:37.621Z,5.70
2018-07-13T19:09:06.866Z,6.20
2018-07-13T19:11:34.902Z,5.70
2018-07-13T19:14:03.498Z,5.92
2018-07-13T19:16:31.557Z,5.17
2018-07-13T19:18:59.810Z,5.00
2018-07-13T19:21:27.873Z,5.03
2018-07-13T19:23:55.922Z,4.97
2018-07-13T19:26:25.041Z,5.20
2018-07-13T19:28:53.082Z,4.87
2018-07-13T19:31:23.213Z,5.05
2018-07-13T19:33:51.275Z,5.20
2018-07-13T19:36:19.402Z,5.10
2018-07-13T19:38:47.397Z,5.20
2018-07-13T19:41:15.421Z,5.30
2018-07-13T19:43:43.621Z,5.23
2018-07-13T19:46:11.662Z,6.10
2018-07-13T19:48:39.690Z,5.77
2018-07-13T19:51:10.082Z,5.70
2018-07-13T19:53:38.156Z,5.85
2018-07-13T19:56:06.308Z,6.30
2018-07-13T19:58:34.486Z,5.40
2018-07-13T20:01:02.823Z,6.00
2018-07-13T20:03:31.572Z,5.57
2018-07-13T20:05:59.570Z,5.67
2018-07-13T20:08:27.593Z,5.77
2018-07-13T20:10:55.635Z,5.93
2018-07-13T20:13:23.801Z,5.17
2018-07-13T20:15:51.825Z,5.90
2018-07-13T20:18:19.888Z,5.03
2018-07-13T20:20:47.923Z,6.03
2018-07-13T20:23:15.999Z,6.47
2018-07-13T20:25:44.055Z,6.23
2018-07-13T20:28:12.537Z,5.58
2018-07-13T20:30:40.609Z,6.17
2018-07-13T20:33:08.658Z,6.00
2018-07-13T20:35:36.681Z,6.20
2018-07-13T20:38:04.941Z,5.42
2018-07-13T20:40:32.973Z,6.93
2018-07-13T20:43:01.277Z,7.47
2018-07-13T20:45:29.509Z,6.43
2018-07-13T20:47:57.591Z,6.33
2018-07-13T20:50:25.588Z,8.93
2018-07-13T20:52:53.617Z,8.27
2018-07-13T20:55:21.958Z,10.90
2018-07-13T20:57:49.995Z,7.20
2018-07-13T21:00:18.401Z,6.40
2018-07-13T21:02:46.443Z,7.30
2018-07-13T21:05:14.536Z,6.90
2018-07-13T21:07:42.569Z,6.63
2018-07-13T21:10:10.745Z,7.03
2018-07-13T21:12:38.765Z,7.63
2018-07-13T21:15:06.810Z,6.23
2018-07-13T21:17:34.846Z,7.40
2018-07-13T21:20:04.382Z,7.00
2018-07-13T21:22:32.565Z,6.17
2018-07-13T21:25:00.600Z,6.67
2018-07-13T21:27:28.671Z,8.00
2018-07-13T21:29:56.693Z,6.87
2018-07-13T21:32:24.846Z,7.03
2018-07-13T21:34:52.892Z,7.40
2018-07-13T21:37:20.926Z,7.37
2018-07-13T21:39:48.967Z,7.50
2018-07-13T21:42:17.024Z,8.33
2018-07-13T21:44:45.064Z,8.10
2018-07-13T21:47:13.115Z,7.40
2018-07-13T21:49:41.144Z,7.80
2018-07-13T21:52:09.493Z,7.63
2018-07-13T21:54:37.457Z,7.77
2018-07-13T21:57:05.577Z,6.97
2018-07-13T21:59:33.949Z,7.60
2018-07-13T22:02:01.989Z,8.40
2018-07-13T22:04:30.086Z,7.77
2018-07-13T22:06:58.117Z,8.03
2018-07-13T22:09:26.153Z,7.80
2018-07-13T22:11:54.176Z,7.80
2018-07-13T22:14:22.201Z,8.70
2018-07-13T22:16:50.232Z,8.60
2018-07-13T22:19:18.255Z,8.37
2018-07-13T22:21:46.311Z,7.67
2018-07-13T22:24:14.343Z,8.57
2018-07-13T22:26:42.382Z,8.63
2018-07-13T22:29:10.410Z,9.47
2018-07-13T22:31:38.451Z,10.13
2018-07-13T22:34:06.608Z,8.23
2018-07-13T22:36:34.657Z,8.58
2018-07-13T22:39:02.725Z,8.97
2018-07-13T22:41:30.759Z,8.33
2018-07-13T22:43:58.806Z,8.03
2018-07-13T22:46:40.257Z,7.60
2018-07-13T22:49:08.297Z,8.63
2018-07-13T22:51:36.751Z,7.13
2018-07-13T22:54:04.985Z,7.77
2018-07-13T22:56:33.021Z,8.10
2018-07-13T22:59:01.057Z,8.30
2018-07-13T23:01:29.106Z,7.97
2018-07-13T23:03:57.116Z,9.03
2018-07-13T23:06:25.173Z,8.40
2018-07-13T23:08:53.198Z,8.03
2018-07-13T23:11:21.557Z,8.78
2018-07-13T23:13:49.601Z,8.67
2018-07-13T23:16:17.664Z,8.80
2018-07-13T23:18:45.704Z,8.63
2018-07-13T23:21:13.736Z,8.50
2018-07-13T23:23:41.787Z,9.03
2018-07-13T23:26:09.841Z,9.20
2018-07-13T23:28:37.866Z,8.50
2018-07-13T23:31:05.979Z,7.93
2018-07-13T23:33:34.021Z,9.07
2018-07-13T23:36:02.554Z,8.53
2018-07-13T23:38:30.577Z,8.77
2018-07-13T23:40:58.599Z,8.97
2018-07-13T23:43:26.629Z,9.33
2018-07-13T23:45:54.651Z,8.50
2018-07-13T23:48:22.700Z,8.20
2018-07-13T23:50:50.745Z,7.77
2018-07-13T23:53:19.060Z,6.33
2018-07-13T23:55:47.106Z,7.80
2018-07-13T23:58:15.133Z,8.77
